sensor_id;sensor_type;location;lat;lon;timestamp;pressure;altitude;pressure_sealevel;temperature;humidity
38786;BME280;24535;45.508;12.252;2023-02-16T00:00:20;102848.13;;;8.02;59.95
38786;BME280;24535;45.508;12.252;2023-02-16T00:02:47;102852.53;;;8.00;59.59
38786;BME280;24535;45.508;12.252;2023-02-16T00:05:28;102854.34;;;7.98;59.80
38786;BME280;24535;45.508;12.252;2023-02-16T00:07:55;102848.31;;;7.95;59.58
38786;BME280;24535;45.508;12.252;2023-02-16T00:10:21;102846.59;;;7.92;59.57
38786;BME280;24535;45.508;12.252;2023-02-16T00:12:47;102852.75;;;7.89;59.87
38786;BME280;24535;45.508;12.252;2023-02-16T00:15:31;102849.28;;;7.89;59.73
38786;BME280;24535;45.508;12.252;2023-02-16T00:17:58;102841.50;;;7.86;59.61
38786;BME280;24535;45.508;12.252;2023-02-16T00:20:24;102845.84;;;7.85;60.19
38786;BME280;24535;45.508;12.252;2023-02-16T00:22:50;102852.06;;;7.83;60.33
38786;BME280;24535;45.508;12.252;2023-02-16T00:25:15;102855.53;;;7.82;59.99
38786;BME280;24535;45.508;12.252;2023-02-16T00:27:41;102852.06;;;7.83;60.17
38786;BME280;24535;45.508;12.252;2023-02-16T00:30:17;102855.53;;;7.83;60.81
38786;BME280;24535;45.508;12.252;2023-02-16T00:32:43;102859.06;;;7.81;60.61
38786;BME280;24535;45.508;12.252;2023-02-16T00:35:19;102848.59;;;7.81;60.65
38786;BME280;24535;45.508;12.252;2023-02-16T00:37:45;102848.59;;;7.81;60.47
38786;BME280;24535;45.508;12.252;2023-02-16T00:40:12;102853.03;;;7.77;60.33
38786;BME280;24535;45.508;12.252;2023-02-16T00:42:39;102845.19;;;7.76;60.17
38786;BME280;24535;45.508;12.252;2023-02-16T00:45:13;102860.09;;;7.74;60.53
38786;BME280;24535;45.508;12.252;2023-02-16T00:47:42;102852.31;;;7.69;60.66
38786;BME280;24535;45.508;12.252;2023-02-16T00:50:17;102857.59;;;7.67;60.67
38786;BME280;24535;45.508;12.252;2023-02-16T00:52:43;102854.19;;;7.64;60.69
38786;BME280;24535;45.508;12.252;2023-02-16T00:55:17;102863.81;;;7.63;60.96
38786;BME280;24535;45.508;12.252;2023-02-16T01:00:24;102854.28;;;7.59;60.48
38786;BME280;24535;45.508;12.252;2023-02-16T01:02:53;102856.97;;;7.56;60.69
38786;BME280;24535;45.508;12.252;2023-02-16T01:05:20;102851.75;;;7.53;60.74
38786;BME280;24535;45.508;12.252;2023-02-16T01:07:45;102850.03;;;7.52;60.59
38786;BME280;24535;45.508;12.252;2023-02-16T01:10:29;102852.72;;;7.49;60.46
38786;BME280;24535;45.508;12.252;2023-02-16T01:13:13;102854.47;;;7.49;60.62
38786;BME280;24535;45.508;12.252;2023-02-16T01:15:40;102846.69;;;7.46;60.71
38786;BME280;24535;45.508;12.252;2023-02-16T01:18:06;102849.34;;;7.44;60.70
38786;BME280;24535;45.508;12.252;2023-02-16T01:20:33;102849.38;;;7.41;60.73
38786;BME280;24535;45.508;12.252;2023-02-16T01:23:01;102842.41;;;7.40;60.84
38786;BME280;24535;45.508;12.252;2023-02-16T01:25:27;102839.84;;;7.38;60.81
38786;BME280;24535;45.508;12.252;2023-02-16T01:27:53;102838.13;;;7.36;60.69
38786;BME280;24535;45.508;12.252;2023-02-16T01:30:20;102840.75;;;7.36;61.10
38786;BME280;24535;45.508;12.252;2023-02-16T01:32:46;102838.16;;;7.34;60.73
38786;BME280;24535;45.508;12.252;2023-02-16T01:35:27;102842.47;;;7.37;61.83
38786;BME280;24535;45.508;12.252;2023-02-16T01:37:53;102840.81;;;7.33;60.93
38786;BME280;24535;45.508;12.252;2023-02-16T01:43:26;102830.34;;;7.31;61.46
38786;BME280;24535;45.508;12.252;2023-02-16T01:46:02;102828.59;;;7.33;61.71
38786;BME280;24535;45.508;12.252;2023-02-16T01:48:30;102822.50;;;7.31;61.04
38786;BME280;24535;45.508;12.252;2023-02-16T01:51:09;102827.69;;;7.33;61.94
38786;BME280;24535;45.508;12.252;2023-02-16T01:53:45;102826.88;;;7.31;61.60
38786;BME280;24535;45.508;12.252;2023-02-16T01:56:39;102820.72;;;7.33;61.76
38786;BME280;24535;45.508;12.252;2023-02-16T02:01:52;102810.25;;;7.32;62.07
38786;BME280;24535;45.508;12.252;2023-02-16T02:04:22;102813.78;;;7.31;61.84
38786;BME280;24535;45.508;12.252;2023-02-16T02:07:12;102814.63;;;7.31;61.23
38786;BME280;24535;45.508;12.252;2023-02-16T02:09:46;102805.94;;;7.29;61.83
38786;BME280;24535;45.508;12.252;2023-02-16T02:14:52;102818.25;;;7.24;61.00
38786;BME280;24535;45.508;12.252;2023-02-16T02:17:20;102811.34;;;7.22;61.07
38786;BME280;24535;45.508;12.252;2023-02-16T02:20:03;102809.59;;;7.21;62.21
38786;BME280;24535;45.508;12.252;2023-02-16T02:33:58;102813.16;;;7.16;62.23
38786;BME280;24535;45.508;12.252;2023-02-16T02:36:38;102812.34;;;7.13;62.81
38786;BME280;24535;45.508;12.252;2023-02-16T02:41:50;102818.59;;;7.07;63.90
38786;BME280;24535;45.508;12.252;2023-02-16T02:47:07;102818.72;;;7.01;63.61
38786;BME280;24535;45.508;12.252;2023-02-16T02:49:32;102823.06;;;7.01;63.88
38786;BME280;24535;45.508;12.252;2023-02-16T02:51:58;102820.47;;;6.99;64.08
38786;BME280;24535;45.508;12.252;2023-02-16T02:54:29;102822.19;;;7.02;63.80
38786;BME280;24535;45.508;12.252;2023-02-16T03:06:00;102817.94;;;6.94;63.48
38786;BME280;24535;45.508;12.252;2023-02-16T03:08:29;102824.22;;;6.86;63.57
38786;BME280;24535;45.508;12.252;2023-02-16T03:13:52;102825.16;;;6.82;64.00
38786;BME280;24535;45.508;12.252;2023-02-16T03:16:24;102820.88;;;6.76;63.43
38786;BME280;24535;45.508;12.252;2023-02-16T03:18:52;102821.78;;;6.77;63.69
38786;BME280;24535;45.508;12.252;2023-02-16T03:21:37;102813.84;;;6.80;64.13
38786;BME280;24535;45.508;12.252;2023-02-16T03:24:28;102815.59;;;6.79;63.78
38786;BME280;24535;45.508;12.252;2023-02-16T03:27:16;102815.72;;;6.73;63.73
38786;BME280;24535;45.508;12.252;2023-02-16T03:30:03;102820.13;;;6.69;64.02
38786;BME280;24535;45.508;12.252;2023-02-16T03:32:30;102818.47;;;6.65;63.22
38786;BME280;24535;45.508;12.252;2023-02-16T03:34:56;102819.41;;;6.61;63.58
38786;BME280;24535;45.508;12.252;2023-02-16T03:37:22;102824.66;;;6.60;63.54
38786;BME280;24535;45.508;12.252;2023-02-16T03:39:48;102822.09;;;6.55;63.05
38786;BME280;24535;45.508;12.252;2023-02-16T03:42:32;102824.94;;;6.43;63.18
38786;BME280;24535;45.508;12.252;2023-02-16T03:44:57;102821.59;;;6.33;63.55
38786;BME280;24535;45.508;12.252;2023-02-16T03:47:22;102821.72;;;6.26;63.84
38786;BME280;24535;45.508;12.252;2023-02-16T03:49:48;102817.50;;;6.15;63.34
38786;BME280;24535;45.508;12.252;2023-02-16T03:52:13;102828.03;;;6.11;64.34
38786;BME280;24535;45.508;12.252;2023-02-16T03:54:39;102828.06;;;6.09;64.34
38786;BME280;24535;45.508;12.252;2023-02-16T03:57:04;102830.72;;;6.06;64.29
38786;BME280;24535;45.508;12.252;2023-02-16T03:59:29;102826.41;;;6.02;64.70
38786;BME280;24535;45.508;12.252;2023-02-16T04:01:55;102819.50;;;6.00;64.91
38786;BME280;24535;45.508;12.252;2023-02-16T04:04:20;102829.97;;;5.98;64.84
38786;BME280;24535;45.508;12.252;2023-02-16T04:06:46;102818.59;;;5.99;65.11
38786;BME280;24535;45.508;12.252;2023-02-16T04:09:11;102822.16;;;5.97;64.97
38786;BME280;24535;45.508;12.252;2023-02-16T04:11:36;102821.31;;;5.93;64.50
38786;BME280;24535;45.508;12.252;2023-02-16T04:14:20;102823.94;;;5.90;64.82
38786;BME280;24535;45.508;12.252;2023-02-16T04:16:46;102817.78;;;5.97;65.64
38786;BME280;24535;45.508;12.252;2023-02-16T04:19:11;102820.28;;;6.03;65.52
38786;BME280;24535;45.508;12.252;2023-02-16T04:21:37;102818.53;;;6.05;65.29
38786;BME280;24535;45.508;12.252;2023-02-16T04:24:02;102816.81;;;6.03;65.16
38786;BME280;24535;45.508;12.252;2023-02-16T04:26:30;102821.97;;;6.09;65.35
38786;BME280;24535;45.508;12.252;2023-02-16T04:28:56;102824.59;;;6.07;64.80
38786;BME280;24535;45.508;12.252;2023-02-16T04:31:21;102819.41;;;6.04;65.31
38786;BME280;24535;45.508;12.252;2023-02-16T04:33:47;102819.41;;;6.04;65.42
38786;BME280;24535;45.508;12.252;2023-02-16T04:36:12;102825.44;;;6.09;65.58
38786;BME280;24535;45.508;12.252;2023-02-16T04:38:38;102822.72;;;6.15;65.50
38786;BME280;24535;45.508;12.252;2023-02-16T04:41:03;102826.22;;;6.14;65.12
38786;BME280;24535;45.508;12.252;2023-02-16T04:43:29;102818.41;;;6.13;65.38
38786;BME280;24535;45.508;12.252;2023-02-16T04:45:54;102821.00;;;6.16;65.60
38786;BME280;24535;45.508;12.252;2023-02-16T04:48:20;102822.69;;;6.18;65.26
38786;BME280;24535;45.508;12.252;2023-02-16T04:50:45;102823.53;;;6.21;65.57
38786;BME280;24535;45.508;12.252;2023-02-16T04:53:10;102817.38;;;6.23;65.67
38786;BME280;24535;45.508;12.252;2023-02-16T04:55:36;102820.81;;;6.27;65.45
38786;BME280;24535;45.508;12.252;2023-02-16T04:58:01;102822.63;;;6.25;65.46
38786;BME280;24535;45.508;12.252;2023-02-16T05:00:27;102828.75;;;6.22;64.84
38786;BME280;24535;45.508;12.252;2023-02-16T05:02:52;102828.78;;;6.19;65.03
38786;BME280;24535;45.508;12.252;2023-02-16T05:05:17;102830.53;;;6.18;65.52
38786;BME280;24535;45.508;12.252;2023-02-16T05:07:43;102838.38;;;6.20;65.62
38786;BME280;24535;45.508;12.252;2023-02-16T05:10:09;102827.81;;;6.26;66.06
38786;BME280;24535;45.508;12.252;2023-02-16T05:12:34;102830.44;;;6.26;65.76
38786;BME280;24535;45.508;12.252;2023-02-16T05:15:18;102840.03;;;6.26;65.52
38786;BME280;24535;45.508;12.252;2023-02-16T05:17:44;102840.97;;;6.22;65.77
38786;BME280;24535;45.508;12.252;2023-02-16T05:20:09;102847.06;;;6.22;65.35
38786;BME280;24535;45.508;12.252;2023-02-16T05:22:35;102847.06;;;6.22;65.87
38786;BME280;24535;45.508;12.252;2023-02-16T05:25:04;102847.91;;;6.24;66.33
38786;BME280;24535;45.508;12.252;2023-02-16T05:27:30;102841.72;;;6.30;66.51
38786;BME280;24535;45.508;12.252;2023-02-16T05:29:56;102852.16;;;6.31;66.44
38786;BME280;24535;45.508;12.252;2023-02-16T05:32:22;102846.91;;;6.31;66.06
38786;BME280;24535;45.508;12.252;2023-02-16T05:34:48;102850.38;;;6.32;66.34
38786;BME280;24535;45.508;12.252;2023-02-16T05:37:16;102849.53;;;6.31;66.44
38786;BME280;24535;45.508;12.252;2023-02-16T05:39:42;102839.91;;;6.33;66.30
38786;BME280;24535;45.508;12.252;2023-02-16T05:42:07;102849.53;;;6.33;66.53
38786;BME280;24535;45.508;12.252;2023-02-16T05:44:33;102859.06;;;6.35;66.86
38786;BME280;24535;45.508;12.252;2023-02-16T05:46:58;102857.31;;;6.36;66.71
38786;BME280;24535;45.508;12.252;2023-02-16T05:49:24;102850.31;;;6.38;66.32
38786;BME280;24535;45.508;12.252;2023-02-16T05:51:50;102856.44;;;6.37;66.82
38786;BME280;24535;45.508;12.252;2023-02-16T05:54:15;102864.31;;;6.35;67.14
38786;BME280;24535;45.508;12.252;2023-02-16T05:56:48;102863.44;;;6.35;66.98
38786;BME280;24535;45.508;12.252;2023-02-16T05:59:14;102857.38;;;6.31;67.27
38786;BME280;24535;45.508;12.252;2023-02-16T06:01:41;102860.00;;;6.33;67.33
38786;BME280;24535;45.508;12.252;2023-02-16T06:04:08;102860.88;;;6.32;67.38
38786;BME280;24535;45.508;12.252;2023-02-16T06:06:38;102862.66;;;6.30;67.30
38786;BME280;24535;45.508;12.252;2023-02-16T06:09:05;102873.13;;;6.30;67.68
38786;BME280;24535;45.508;12.252;2023-02-16T06:11:31;102875.78;;;6.28;68.04
38786;BME280;24535;45.508;12.252;2023-02-16T06:14:00;102865.28;;;6.30;67.58
38786;BME280;24535;45.508;12.252;2023-02-16T06:16:29;102868.78;;;6.29;67.81
38786;BME280;24535;45.508;12.252;2023-02-16T06:18:55;102866.16;;;6.29;68.25
38786;BME280;24535;45.508;12.252;2023-02-16T06:21:22;102874.88;;;6.29;68.17
38786;BME280;24535;45.508;12.252;2023-02-16T06:23:48;102876.63;;;6.29;68.38
38786;BME280;24535;45.508;12.252;2023-02-16T06:26:14;102878.38;;;6.28;68.39
38786;BME280;24535;45.508;12.252;2023-02-16T06:28:39;102881.88;;;6.29;68.50
38786;BME280;24535;45.508;12.252;2023-02-16T06:31:05;102885.34;;;6.29;68.98
38786;BME280;24535;45.508;12.252;2023-02-16T06:33:30;102886.19;;;6.31;69.08
38786;BME280;24535;45.508;12.252;2023-02-16T06:35:56;102887.84;;;6.37;69.39
38786;BME280;24535;45.508;12.252;2023-02-16T06:38:21;102895.69;;;6.38;69.40
38786;BME280;24535;45.508;12.252;2023-02-16T06:40:50;102896.56;;;6.36;68.84
38786;BME280;24535;45.508;12.252;2023-02-16T06:43:16;102904.50;;;6.33;68.90
38786;BME280;24535;45.508;12.252;2023-02-16T06:45:42;102914.09;;;6.31;69.04
38786;BME280;24535;45.508;12.252;2023-02-16T06:48:07;102911.53;;;6.29;68.89
38786;BME280;24535;45.508;12.252;2023-02-16T06:50:33;102911.56;;;6.26;68.62
38786;BME280;24535;45.508;12.252;2023-02-16T06:52:58;102919.41;;;6.26;69.81
38786;BME280;24535;45.508;12.252;2023-02-16T06:55:24;102922.88;;;6.27;69.73
38786;BME280;24535;45.508;12.252;2023-02-16T06:57:49;102921.16;;;6.26;69.52
38786;BME280;24535;45.508;12.252;2023-02-16T07:00:18;102921.19;;;6.23;69.38
38786;BME280;24535;45.508;12.252;2023-02-16T07:02:43;102925.53;;;6.25;69.39
38786;BME280;24535;45.508;12.252;2023-02-16T07:05:10;102926.38;;;6.27;69.57
38786;BME280;24535;45.508;12.252;2023-02-16T07:07:35;102928.88;;;6.36;70.22
38786;BME280;24535;45.508;12.252;2023-02-16T07:10:01;102926.22;;;6.38;69.38
38786;BME280;24535;45.508;12.252;2023-02-16T07:12:27;102926.22;;;6.38;69.46
38786;BME280;24535;45.508;12.252;2023-02-16T07:14:52;102918.38;;;6.38;69.55
38786;BME280;24535;45.508;12.252;2023-02-16T07:17:18;102923.66;;;6.36;69.53
38786;BME280;24535;45.508;12.252;2023-02-16T07:19:43;102930.66;;;6.33;69.11
38786;BME280;24535;45.508;12.252;2023-02-16T07:22:09;102928.84;;;6.38;69.89
38786;BME280;24535;45.508;12.252;2023-02-16T07:24:34;102927.94;;;6.40;69.67
38786;BME280;24535;45.508;12.252;2023-02-16T07:27:00;102933.97;;;6.44;69.62
38786;BME280;24535;45.508;12.252;2023-02-16T07:29:25;102940.91;;;6.48;69.91
38786;BME280;24535;45.508;12.252;2023-02-16T07:31:50;102947.78;;;6.57;69.97
38786;BME280;24535;45.508;12.252;2023-02-16T07:34:16;102942.44;;;6.63;70.23
38786;BME280;24535;45.508;12.252;2023-02-16T07:36:42;102949.31;;;6.70;70.69
38786;BME280;24535;45.508;12.252;2023-02-16T07:39:09;102947.47;;;6.78;70.65
38786;BME280;24535;45.508;12.252;2023-02-16T07:41:35;102947.38;;;6.83;70.49
38786;BME280;24535;45.508;12.252;2023-02-16T07:44:00;102945.47;;;6.92;70.44
38786;BME280;24535;45.508;12.252;2023-02-16T07:46:27;102938.44;;;6.98;70.04
38786;BME280;24535;45.508;12.252;2023-02-16T07:48:52;102938.31;;;7.05;70.64
38786;BME280;24535;45.508;12.252;2023-02-16T07:51:24;102948.59;;;7.16;70.55
38786;BME280;24535;45.508;12.252;2023-02-16T07:53:51;102947.59;;;7.23;70.05
38786;BME280;24535;45.508;12.252;2023-02-16T07:56:22;102945.75;;;7.28;70.32
38786;BME280;24535;45.508;12.252;2023-02-16T07:58:50;102948.28;;;7.34;70.70
38786;BME280;24535;45.508;12.252;2023-02-16T08:01:16;102943.88;;;7.36;70.51
38786;BME280;24535;45.508;12.252;2023-02-16T08:03:42;102946.41;;;7.41;70.36
38786;BME280;24535;45.508;12.252;2023-02-16T08:06:07;102943.78;;;7.42;70.08
38786;BME280;24535;45.508;12.252;2023-02-16T08:08:33;102953.31;;;7.45;70.42
38786;BME280;24535;45.508;12.252;2023-02-16T08:11:06;102949.81;;;7.46;70.36
38786;BME280;24535;45.508;12.252;2023-02-16T08:13:31;102948.88;;;7.50;70.15
38786;BME280;24535;45.508;12.252;2023-02-16T08:15:57;102947.06;;;7.52;70.13
38786;BME280;24535;45.508;12.252;2023-02-16T08:18:22;102959.25;;;7.56;70.23
38786;BME280;24535;45.508;12.252;2023-02-16T08:20:48;102962.59;;;7.64;70.08
38786;BME280;24535;45.508;12.252;2023-02-16T08:23:13;102955.47;;;7.69;70.55
38786;BME280;24535;45.508;12.252;2023-02-16T08:25:39;102964.13;;;7.76;70.70
38786;BME280;24535;45.508;12.252;2023-02-16T08:28:04;102956.19;;;7.79;70.77
38786;BME280;24535;45.508;12.252;2023-02-16T08:30:32;102960.44;;;7.85;70.14
38786;BME280;24535;45.508;12.252;2023-02-16T08:32:59;102962.91;;;7.92;70.08
38786;BME280;24535;45.508;12.252;2023-02-16T08:35:27;102954.13;;;7.95;70.54
38786;BME280;24535;45.508;12.252;2023-02-16T08:37:55;102966.25;;;8.02;70.94
38786;BME280;24535;45.508;12.252;2023-02-16T08:40:20;102961.78;;;8.06;70.41
38786;BME280;24535;45.508;12.252;2023-02-16T08:42:49;102959.94;;;8.09;70.62
38786;BME280;24535;45.508;12.252;2023-02-16T08:45:15;102965.91;;;8.17;70.81
38786;BME280;24535;45.508;12.252;2023-02-16T08:47:40;102955.28;;;8.24;71.09
38786;BME280;24535;45.508;12.252;2023-02-16T08:50:06;102966.56;;;8.29;70.98
38786;BME280;24535;45.508;12.252;2023-02-16T08:52:32;102965.63;;;8.31;70.89
38786;BME280;24535;45.508;12.252;2023-02-16T08:54:58;102977.72;;;8.40;70.27
38786;BME280;24535;45.508;12.252;2023-02-16T08:57:23;102975.81;;;8.47;70.56
38786;BME280;24535;45.508;12.252;2023-02-16T08:59:49;102971.34;;;8.52;71.06
38786;BME280;24535;45.508;12.252;2023-02-16T09:02:34;102970.28;;;8.60;70.43
38786;BME280;24535;45.508;12.252;2023-02-16T09:05:00;102984.09;;;8.69;70.43
38786;BME280;24535;45.508;12.252;2023-02-16T09:07:25;102973.47;;;8.73;70.86
38786;BME280;24535;45.508;12.252;2023-02-16T09:09:51;102979.41;;;8.81;70.85
38786;BME280;24535;45.508;12.252;2023-02-16T09:12:17;102975.88;;;8.84;70.76
38786;BME280;24535;45.508;12.252;2023-02-16T09:14:42;102982.78;;;8.86;70.77
38786;BME280;24535;45.508;12.252;2023-02-16T09:17:08;102977.53;;;8.86;70.74
38786;BME280;24535;45.508;12.252;2023-02-16T09:19:33;102972.41;;;8.82;71.17
38786;BME280;24535;45.508;12.252;2023-02-16T09:21:59;102980.34;;;8.79;70.82
38786;BME280;24535;45.508;12.252;2023-02-16T09:24:25;102984.72;;;8.80;71.07
38786;BME280;24535;45.508;12.252;2023-02-16T09:26:51;102988.22;;;8.79;71.26
38786;BME280;24535;45.508;12.252;2023-02-16T09:29:16;102991.69;;;8.81;71.22
38786;BME280;24535;45.508;12.252;2023-02-16T09:31:42;102986.41;;;8.82;71.38
38786;BME280;24535;45.508;12.252;2023-02-16T09:34:17;102993.41;;;8.83;71.62
38786;BME280;24535;45.508;12.252;2023-02-16T09:36:43;102996.91;;;8.84;71.06
38786;BME280;24535;45.508;12.252;2023-02-16T09:39:09;102987.31;;;8.81;71.45
38786;BME280;24535;45.508;12.252;2023-02-16T09:44:48;102997.81;;;8.81;71.80
38786;BME280;24535;45.508;12.252;2023-02-16T09:47:25;103004.78;;;8.84;72.13
38786;BME280;24535;45.508;12.252;2023-02-16T09:49:54;102996.00;;;8.85;71.99
38786;BME280;24535;45.508;12.252;2023-02-16T09:52:29;103001.09;;;8.91;72.23
38786;BME280;24535;45.508;12.252;2023-02-16T09:55:00;102992.22;;;8.95;72.54
38786;BME280;24535;45.508;12.252;2023-02-16T10:00:10;102993.69;;;9.08;72.45
38786;BME280;24535;45.508;12.252;2023-02-16T10:08:29;102996.72;;;9.27;72.69
38786;BME280;24535;45.508;12.252;2023-02-16T10:11:20;102999.16;;;9.35;72.85
38786;BME280;24535;45.508;12.252;2023-02-16T10:17:07;103001.47;;;9.47;72.93
38786;BME280;24535;45.508;12.252;2023-02-16T10:19:45;103010.16;;;9.51;72.59
38786;BME280;24535;45.508;12.252;2023-02-16T10:22:26;103009.09;;;9.58;72.38
38786;BME280;24535;45.508;12.252;2023-02-16T10:25:07;103000.16;;;9.63;72.62
38786;BME280;24535;45.508;12.252;2023-02-16T10:27:40;103002.59;;;9.71;72.13
38786;BME280;24535;45.508;12.252;2023-02-16T10:30:15;103007.63;;;9.80;71.51
38786;BME280;24535;45.508;12.252;2023-02-16T10:33:09;102996.84;;;9.89;71.36
38786;BME280;24535;45.508;12.252;2023-02-16T10:35:48;103001.84;;;9.99;71.78
38786;BME280;24535;45.508;12.252;2023-02-16T10:38:24;102995.50;;;10.06;71.80
38786;BME280;24535;45.508;12.252;2023-02-16T10:41:00;102995.25;;;10.15;71.48
38786;BME280;24535;45.508;12.252;2023-02-16T10:43:38;102989.84;;;10.20;71.60
38786;BME280;24535;45.508;12.252;2023-02-16T10:46:09;102989.69;;;10.24;70.98
38786;BME280;24535;45.508;12.252;2023-02-16T10:48:36;102996.63;;;10.30;71.11
38786;BME280;24535;45.508;12.252;2023-02-16T10:55:56;102989.16;;;10.44;70.54
38786;BME280;24535;45.508;12.252;2023-02-16T10:58:38;102984.66;;;10.48;69.72
38786;BME280;24535;45.508;12.252;2023-02-16T11:01:37;102980.09;;;10.53;68.47
38786;BME280;24535;45.508;12.252;2023-02-16T11:04:03;102979.97;;;10.57;69.07
38786;BME280;24535;45.508;12.252;2023-02-16T11:06:29;102980.69;;;10.62;69.82
38786;BME280;24535;45.508;12.252;2023-02-16T11:09:00;102979.72;;;10.65;70.05
38786;BME280;24535;45.508;12.252;2023-02-16T11:11:27;102984.88;;;10.70;69.80
38786;BME280;24535;45.508;12.252;2023-02-16T11:13:59;102968.16;;;10.69;69.97
38786;BME280;24535;45.508;12.252;2023-02-16T11:16:26;102971.63;;;10.71;70.02
38786;BME280;24535;45.508;12.252;2023-02-16T11:18:58;102977.69;;;10.75;70.20
38786;BME280;24535;45.508;12.252;2023-02-16T11:24:13;102967.91;;;10.78;70.26
38786;BME280;24535;45.508;12.252;2023-02-16T11:29:30;102967.78;;;10.81;70.49
38786;BME280;24535;45.508;12.252;2023-02-16T11:31:56;102963.41;;;10.82;70.66
38786;BME280;24535;45.508;12.252;2023-02-16T11:34:27;102963.41;;;10.82;70.77
38786;BME280;24535;45.508;12.252;2023-02-16T11:37:03;102960.69;;;10.83;70.94
38786;BME280;24535;45.508;12.252;2023-02-16T11:39:35;102953.66;;;10.84;70.53
38786;BME280;24535;45.508;12.252;2023-02-16T11:42:05;102950.91;;;10.87;70.75
38786;BME280;24535;45.508;12.252;2023-02-16T11:44:42;102936.75;;;10.89;70.73
38786;BME280;24535;45.508;12.252;2023-02-16T11:47:24;102939.22;;;10.96;70.24
38786;BME280;24535;45.508;12.252;2023-02-16T11:52:39;102936.41;;;11.00;70.39
38786;BME280;24535;45.508;12.252;2023-02-16T11:55:21;102936.31;;;11.03;70.41
38786;BME280;24535;45.508;12.252;2023-02-16T11:57:47;102931.06;;;11.02;70.63
38786;BME280;24535;45.508;12.252;2023-02-16T12:00:18;102929.19;;;11.05;70.78
38786;BME280;24535;45.508;12.252;2023-02-16T12:16:43;102917.78;;;11.05;70.09
38786;BME280;24535;45.508;12.252;2023-02-16T12:36:26;102891.56;;;11.27;68.39
38786;BME280;24535;45.508;12.252;2023-02-16T12:41:59;102887.94;;;11.29;68.33
38786;BME280;24535;45.508;12.252;2023-02-16T12:44:31;102885.28;;;11.29;68.81
38786;BME280;24535;45.508;12.252;2023-02-16T12:47:04;102881.75;;;11.30;68.19
38786;BME280;24535;45.508;12.252;2023-02-16T12:49:55;102879.91;;;11.32;68.36
38786;BME280;24535;45.508;12.252;2023-02-16T12:54:54;102874.63;;;11.32;69.24
38786;BME280;24535;45.508;12.252;2023-02-16T12:57:26;102867.56;;;11.33;69.36
38786;BME280;24535;45.508;12.252;2023-02-16T13:00:20;102870.19;;;11.34;69.80
38786;BME280;24535;45.508;12.252;2023-02-16T13:02:52;102861.28;;;11.37;69.50
38786;BME280;24535;45.508;12.252;2023-02-16T13:05:25;102853.41;;;11.35;69.30
38786;BME280;24535;45.508;12.252;2023-02-16T13:10:57;102854.03;;;11.42;68.40
38786;BME280;24535;45.508;12.252;2023-02-16T13:13:32;102852.22;;;11.44;67.72
38786;BME280;24535;45.508;12.252;2023-02-16T13:16:22;102857.50;;;11.44;66.44
38786;BME280;24535;45.508;12.252;2023-02-16T13:18:50;102856.53;;;11.47;66.21
38786;BME280;24535;45.508;12.252;2023-02-16T13:26:51;102843.16;;;11.51;65.52
38786;BME280;24535;45.508;12.252;2023-02-16T13:29:26;102842.31;;;11.51;65.44
38786;BME280;24535;45.508;12.252;2023-02-16T13:32:12;102836.97;;;11.52;64.60
38786;BME280;24535;45.508;12.252;2023-02-16T13:34:53;102842.19;;;11.54;66.24
38786;BME280;24535;45.508;12.252;2023-02-16T13:37:49;102842.19;;;11.54;66.90
38786;BME280;24535;45.508;12.252;2023-02-16T13:40:45;102836.03;;;11.53;67.73
38786;BME280;24535;45.508;12.252;2023-02-16T13:46:02;102837.03;;;11.51;68.01
38786;BME280;24535;45.508;12.252;2023-02-16T13:48:47;102838.78;;;11.50;67.13
38786;BME280;24535;45.508;12.252;2023-02-16T13:51:17;102836.09;;;11.52;66.80
38786;BME280;24535;45.508;12.252;2023-02-16T13:53:53;102833.41;;;11.53;65.49
38786;BME280;24535;45.508;12.252;2023-02-16T13:56:21;102828.94;;;11.55;65.39
38786;BME280;24535;45.508;12.252;2023-02-16T14:01:45;102833.22;;;11.58;64.73
38786;BME280;24535;45.508;12.252;2023-02-16T14:19:51;102811.88;;;11.64;63.24
38786;BME280;24535;45.508;12.252;2023-02-16T14:25:32;102810.91;;;11.67;62.36
38786;BME280;24535;45.508;12.252;2023-02-16T14:28:49;102812.63;;;11.68;62.79
38786;BME280;24535;45.508;12.252;2023-02-16T14:31:10;102808.25;;;11.67;62.45
38786;BME280;24535;45.508;12.252;2023-02-16T14:33:40;102806.50;;;11.67;62.26
38786;BME280;24535;45.508;12.252;2023-02-16T14:38:46;102807.34;;;11.68;62.99
38786;BME280;24535;45.508;12.252;2023-02-16T14:43:49;102810.78;;;11.70;63.77
38786;BME280;24535;45.508;12.252;2023-02-16T14:49:46;102804.56;;;11.71;63.07
38786;BME280;24535;45.508;12.252;2023-02-16T15:00:30;102804.56;;;11.71;62.50
38786;BME280;24535;45.508;12.252;2023-02-16T15:03:13;102812.50;;;11.71;62.00
38786;BME280;24535;45.508;12.252;2023-02-16T15:05:39;102805.50;;;11.70;62.10
38786;BME280;24535;45.508;12.252;2023-02-16T15:08:15;102810.78;;;11.70;62.31
38786;BME280;24535;45.508;12.252;2023-02-16T15:10:43;102810.78;;;11.70;62.25
38786;BME280;24535;45.508;12.252;2023-02-16T15:13:31;102804.66;;;11.69;61.35
38786;BME280;24535;45.508;12.252;2023-02-16T15:16:02;102809.84;;;11.71;62.00
38786;BME280;24535;45.508;12.252;2023-02-16T15:18:32;102804.66;;;11.69;63.46
38786;BME280;24535;45.508;12.252;2023-02-16T15:21:03;102803.78;;;11.69;64.24
38786;BME280;24535;45.508;12.252;2023-02-16T15:23:32;102809.84;;;11.71;64.28
38786;BME280;24535;45.508;12.252;2023-02-16T15:26:05;102813.44;;;11.70;66.53
38786;BME280;24535;45.508;12.252;2023-02-16T15:28:39;102804.75;;;11.66;66.06
38786;BME280;24535;45.508;12.252;2023-02-16T15:31:10;102802.97;;;11.67;66.55
38786;BME280;24535;45.508;12.252;2023-02-16T15:33:52;102812.75;;;11.64;67.13
38786;BME280;24535;45.508;12.252;2023-02-16T15:36:21;102811.03;;;11.63;67.86